createdAt,value
2023-02-27T00:00:59.547Z,56.87
2023-02-27T00:03:28.886Z,57.22
2023-02-27T00:05:57.249Z,57.72
2023-02-27T00:08:25.745Z,58.15
2023-02-27T00:10:54.079Z,58.62
2023-02-27T00:13:22.305Z,59.42
2023-02-27T00:15:51.274Z,59.51
2023-02-27T00:18:19.358Z,59.80
2023-02-27T00:20:48.700Z,60.24
2023-02-27T00:23:16.787Z,60.35
2023-02-27T00:25:44.993Z,60.72
2023-02-27T00:28:13.140Z,61.18
2023-02-27T00:30:42.014Z,61.65
2023-02-27T00:33:10.915Z,61.58
2023-02-27T00:35:38.983Z,61.78
2023-02-27T00:38:06.946Z,62.03
2023-02-27T00:40:37.792Z,63.86
2023-02-27T00:43:05.856Z,64.95
2023-02-27T00:45:34.060Z,64.26
2023-02-27T00:48:02.308Z,64.03
2023-02-27T00:50:30.582Z,63.42
2023-02-27T00:52:58.563Z,62.30
2023-02-27T00:55:27.469Z,61.23
2023-02-27T00:57:55.817Z,60.28
2023-02-27T01:00:24.710Z,58.58
2023-02-27T01:02:52.862Z,57.32
2023-02-27T01:05:21.525Z,57.29
2023-02-27T01:07:49.542Z,57.58
2023-02-27T01:10:17.610Z,59.14
2023-02-27T01:12:45.682Z,59.66
2023-02-27T01:15:13.958Z,60.09
2023-02-27T01:17:43.360Z,60.80
2023-02-27T01:20:12.907Z,62.15
2023-02-27T01:22:41.449Z,64.55
2023-02-27T01:25:10.270Z,64.58
2023-02-27T01:27:40.967Z,64.53
2023-02-27T01:30:11.719Z,63.63
2023-02-27T01:32:39.807Z,62.60
2023-02-27T01:35:08.578Z,61.51
2023-02-27T01:37:36.635Z,61.28
2023-02-27T01:40:07.298Z,60.67
2023-02-27T01:42:35.652Z,59.35
2023-02-27T01:45:13.079Z,58.43
2023-02-27T01:47:55.951Z,58.66
2023-02-27T01:50:24.877Z,59.27
2023-02-27T01:52:58.833Z,59.86
2023-02-27T01:55:30.272Z,60.24
2023-02-27T01:57:58.784Z,60.43
2023-02-27T02:00:27.422Z,63.54
2023-02-27T02:03:04.930Z,65.02
2023-02-27T02:05:33.440Z,65.23
2023-02-27T02:08:02.586Z,64.45
2023-02-27T02:10:32.400Z,63.38
2023-02-27T02:13:00.929Z,62.66
2023-02-27T02:15:36.600Z,62.19
2023-02-27T02:18:21.955Z,62.03
2023-02-27T02:21:22.180Z,61.64
2023-02-27T02:24:28.242Z,59.62
2023-02-27T02:27:08.398Z,57.47
2023-02-27T02:29:42.608Z,57.47
2023-02-27T02:32:25.971Z,57.89
2023-02-27T02:35:27.103Z,58.49
2023-02-27T02:38:29.295Z,58.96
2023-02-27T02:41:06.950Z,59.54
2023-02-27T02:43:48.513Z,60.35
2023-02-27T02:46:43.747Z,60.98
2023-02-27T02:49:36.303Z,61.73
2023-02-27T02:52:16.971Z,63.80
2023-02-27T02:54:58.456Z,65.48
2023-02-27T02:57:36.395Z,65.78
2023-02-27T03:00:14.962Z,64.69
2023-02-27T03:02:49.156Z,64.38
2023-02-27T03:05:53.497Z,63.26
2023-02-27T03:08:26.970Z,62.90
2023-02-27T03:11:00.765Z,61.97
2023-02-27T03:13:51.546Z,61.12
2023-02-27T03:16:43.434Z,61.46
2023-02-27T03:19:17.869Z,61.10
2023-02-27T03:21:54.469Z,60.29
2023-02-27T03:24:32.267Z,59.27
2023-02-27T03:27:03.195Z,57.59
2023-02-27T03:29:38.400Z,57.90
2023-02-27T03:32:18.938Z,58.55
2023-02-27T03:34:48.364Z,59.33
2023-02-27T03:37:55.689Z,60.69
2023-02-27T03:40:40.210Z,61.51
2023-02-27T03:43:21.595Z,63.70
2023-02-27T03:46:07.923Z,65.72
2023-02-27T03:48:36.580Z,65.55
2023-02-27T03:51:04.748Z,64.75
2023-02-27T03:53:38.142Z,64.34
2023-02-27T03:56:09.201Z,63.74
2023-02-27T03:58:37.461Z,62.85
2023-02-27T04:01:06.149Z,62.99
2023-02-27T04:03:41.207Z,61.57
2023-02-27T04:06:29.017Z,61.72
2023-02-27T04:09:20.124Z,61.63
2023-02-27T04:12:11.068Z,61.53
2023-02-27T04:15:07.269Z,61.34
2023-02-27T04:17:44.547Z,61.08
2023-02-27T04:20:44.819Z,61.85
2023-02-27T04:23:28.251Z,60.57
2023-02-27T04:26:08.300Z,59.03
2023-02-27T04:28:39.305Z,57.53
2023-02-27T04:31:24.997Z,58.05
2023-02-27T04:34:18.145Z,58.30
2023-02-27T04:37:01.516Z,59.23
2023-02-27T04:39:36.652Z,60.05
2023-02-27T04:42:11.363Z,61.42
2023-02-27T04:44:41.378Z,62.64
2023-02-27T04:47:12.954Z,64.55
2023-02-27T04:49:48.460Z,65.73
2023-02-27T04:52:21.594Z,65.05
2023-02-27T04:54:56.431Z,64.59
2023-02-27T04:57:30.115Z,64.02
2023-02-27T05:00:01.626Z,63.57
2023-02-27T05:02:36.187Z,62.94
2023-02-27T05:05:10.817Z,62.35
2023-02-27T05:07:49.438Z,61.87
2023-02-27T05:10:32.681Z,61.60
2023-02-27T05:13:11.179Z,61.34
2023-02-27T05:15:53.180Z,60.92
2023-02-27T05:18:23.067Z,60.75
2023-02-27T05:21:06.592Z,60.45
2023-02-27T05:23:49.707Z,60.26
2023-02-27T05:26:25.171Z,58.62
2023-02-27T05:29:06.564Z,57.15
2023-02-27T05:31:52.457Z,57.34
2023-02-27T05:34:23.666Z,57.93
2023-02-27T05:37:05.048Z,58.80
2023-02-27T05:39:37.520Z,59.81
2023-02-27T05:42:11.938Z,60.52
2023-02-27T05:44:47.616Z,61.68
2023-02-27T05:47:23.746Z,63.17
2023-02-27T05:49:56.732Z,65.04
2023-02-27T05:52:26.848Z,65.36
2023-02-27T05:55:18.821Z,64.77
2023-02-27T05:57:55.045Z,64.35
2023-02-27T06:00:27.032Z,63.81
2023-02-27T06:02:55.298Z,63.38
2023-02-27T06:05:25.710Z,62.64
2023-02-27T06:07:53.693Z,61.89
2023-02-27T06:10:22.573Z,61.41
2023-02-27T06:12:50.542Z,60.96
2023-02-27T06:15:19.745Z,59.92
2023-02-27T06:17:47.717Z,58.51
2023-02-27T06:20:15.808Z,57.01
2023-02-27T06:22:44.055Z,56.77
2023-02-27T06:25:12.528Z,58.41
2023-02-27T06:27:40.515Z,58.81
2023-02-27T06:30:09.497Z,58.66
2023-02-27T06:32:37.393Z,59.10
2023-02-27T06:35:06.604Z,59.52
2023-02-27T06:37:34.832Z,60.05
2023-02-27T06:40:06.099Z,59.95
2023-02-27T06:42:34.041Z,60.38
2023-02-27T06:45:02.114Z,60.28
2023-02-27T06:47:30.086Z,60.90
2023-02-27T06:49:58.366Z,61.57
2023-02-27T06:52:26.756Z,60.76
2023-02-27T06:54:54.909Z,61.38
2023-02-27T06:57:22.915Z,61.31
2023-02-27T06:59:50.950Z,61.61
2023-02-27T07:02:19.031Z,61.68
2023-02-27T07:04:47.438Z,62.64
2023-02-27T07:07:34.630Z,58.96
2023-02-27T07:10:05.504Z,56.88
2023-02-27T07:12:33.842Z,55.66
2023-02-27T07:15:01.823Z,56.86
2023-02-27T07:17:30.287Z,55.57
2023-02-27T07:19:58.254Z,55.34
2023-02-27T07:22:26.252Z,56.75
2023-02-27T07:24:54.186Z,53.65
2023-02-27T07:27:22.159Z,54.51
2023-02-27T07:29:50.244Z,52.80
2023-02-27T07:32:18.354Z,52.99
2023-02-27T07:34:46.345Z,52.73
2023-02-27T07:37:14.339Z,52.96
2023-02-27T07:39:42.371Z,53.47
2023-02-27T07:42:10.685Z,53.13
2023-02-27T07:44:40.910Z,56.01
2023-02-27T07:47:09.083Z,53.34
2023-02-27T07:49:37.166Z,54.17
2023-02-27T07:52:05.263Z,54.02
2023-02-27T07:54:35.671Z,54.30
2023-02-27T07:57:05.472Z,54.36
2023-02-27T07:59:33.461Z,54.55
2023-02-27T08:02:01.399Z,54.09
2023-02-27T08:04:29.483Z,53.36
2023-02-27T08:06:58.156Z,50.78
2023-02-27T08:09:26.228Z,50.20
2023-02-27T08:11:54.216Z,51.28
2023-02-27T08:14:22.270Z,51.06
2023-02-27T08:16:50.281Z,51.36
2023-02-27T08:19:18.311Z,51.51
2023-02-27T08:21:46.379Z,49.40
2023-02-27T08:24:14.359Z,50.83
2023-02-27T08:26:42.335Z,51.19
2023-02-27T08:29:10.416Z,50.30
2023-02-27T08:31:38.379Z,51.02
2023-02-27T08:34:10.811Z,50.31
2023-02-27T08:36:39.747Z,47.87
2023-02-27T08:39:08.303Z,46.79
2023-02-27T08:41:37.189Z,49.54
2023-02-27T08:44:05.571Z,46.98
2023-02-27T08:46:33.656Z,49.97
2023-02-27T08:49:01.626Z,50.94
2023-02-27T08:51:29.892Z,48.26
2023-02-27T08:53:59.285Z,48.37
2023-02-27T08:56:28.611Z,49.11
2023-02-27T08:58:56.956Z,48.91
2023-02-27T09:01:28.715Z,46.24
2023-02-27T09:03:57.728Z,49.54
2023-02-27T09:06:26.494Z,49.69
2023-02-27T09:08:55.296Z,50.15
2023-02-27T09:11:23.364Z,49.14
2023-02-27T09:13:52.996Z,49.48
2023-02-27T09:16:22.505Z,47.27
2023-02-27T09:18:51.199Z,45.71
2023-02-27T09:21:19.330Z,45.55
2023-02-27T09:23:47.517Z,44.39
2023-02-27T09:26:17.259Z,45.21
2023-02-27T09:28:45.184Z,43.41
2023-02-27T09:31:13.617Z,42.52
2023-02-27T09:33:41.647Z,42.87
2023-02-27T09:36:09.688Z,44.52
2023-02-27T09:38:40.987Z,45.86
2023-02-27T09:41:32.575Z,45.81
2023-02-27T09:44:01.904Z,43.89
2023-02-27T09:46:30.150Z,47.49
2023-02-27T09:49:01.132Z,47.12
2023-02-27T09:51:29.960Z,45.77
2023-02-27T09:54:01.626Z,45.29
2023-02-27T09:56:35.717Z,41.82
2023-02-27T09:59:19.884Z,41.82
2023-02-27T10:02:08.666Z,41.17
2023-02-27T10:05:10.815Z,42.17
2023-02-27T10:07:52.412Z,43.20
2023-02-27T10:10:37.678Z,44.29
2023-02-27T10:13:39.691Z,46.55
2023-02-27T10:16:12.887Z,47.41
2023-02-27T10:18:55.689Z,44.59
2023-02-27T10:21:52.194Z,42.98
2023-02-27T10:24:21.832Z,45.56
2023-02-27T10:26:55.217Z,45.71
2023-02-27T10:29:42.748Z,42.96
2023-02-27T10:32:22.636Z,43.29
2023-02-27T10:35:06.631Z,42.18
2023-02-27T10:37:37.247Z,42.85
2023-02-27T10:40:07.075Z,44.00
2023-02-27T10:42:41.532Z,43.22
2023-02-27T10:45:15.892Z,42.68
2023-02-27T10:47:44.685Z,43.47
2023-02-27T10:50:23.710Z,43.82
2023-02-27T10:52:53.783Z,45.62
2023-02-27T10:55:34.340Z,42.95
2023-02-27T10:58:05.143Z,42.62
2023-02-27T11:00:53.486Z,43.16
2023-02-27T11:03:26.355Z,44.00
2023-02-27T11:05:57.335Z,43.87
2023-02-27T11:08:28.654Z,44.50
2023-02-27T11:11:12.096Z,43.07
2023-02-27T11:13:42.686Z,42.77
2023-02-27T11:16:17.383Z,42.23
2023-02-27T11:18:47.778Z,44.65
2023-02-27T11:21:26.645Z,44.35
2023-02-27T11:23:59.679Z,44.70
2023-02-27T11:26:34.709Z,43.36
2023-02-27T11:29:15.146Z,41.76
2023-02-27T11:31:54.168Z,42.14
2023-02-27T11:34:26.897Z,41.22
2023-02-27T11:37:02.006Z,41.40
2023-02-27T11:39:54.609Z,42.24
2023-02-27T11:42:31.809Z,42.03
2023-02-27T11:46:13.374Z,43.01
2023-02-27T11:48:40.072Z,41.05
2023-02-27T11:51:11.112Z,41.79
2023-02-27T11:54:07.356Z,43.94
2023-02-27T11:56:53.448Z,44.51
2023-02-27T11:59:53.662Z,43.32
2023-02-27T12:02:39.510Z,41.55
2023-02-27T12:05:26.573Z,41.89
2023-02-27T12:08:05.843Z,42.76
2023-02-27T12:11:07.806Z,41.03
2023-02-27T12:13:47.115Z,40.40
2023-02-27T12:16:27.445Z,41.70
2023-02-27T12:19:11.098Z,41.62
2023-02-27T12:21:49.135Z,41.13
2023-02-27T12:24:23.367Z,41.74
2023-02-27T12:27:02.049Z,41.84
2023-02-27T12:29:36.073Z,41.49
2023-02-27T12:32:23.553Z,42.67
2023-02-27T12:35:01.499Z,41.18
2023-02-27T12:37:33.711Z,40.24
2023-02-27T12:40:09.255Z,41.06
2023-02-27T12:42:55.892Z,41.35
2023-02-27T12:45:54.061Z,42.03
2023-02-27T12:49:04.331Z,42.36
2023-02-27T12:51:43.356Z,41.46
2023-02-27T12:54:30.394Z,41.85
2023-02-27T12:57:24.651Z,40.56
2023-02-27T13:00:12.736Z,40.55
2023-02-27T13:02:50.596Z,39.37
2023-02-27T13:05:32.355Z,40.96
2023-02-27T13:08:28.212Z,42.13
2023-02-27T13:11:17.603Z,41.20
2023-02-27T13:13:52.026Z,42.29
2023-02-27T13:16:20.015Z,41.40
2023-02-27T13:18:59.005Z,41.86
2023-02-27T13:22:05.012Z,43.48
2023-02-27T13:24:34.577Z,40.96
2023-02-27T13:27:04.788Z,42.20
2023-02-27T13:29:45.568Z,42.93
2023-02-27T13:32:16.418Z,42.20
2023-02-27T13:34:54.425Z,41.82
2023-02-27T13:37:22.401Z,43.24
2023-02-27T13:40:00.197Z,43.00
2023-02-27T13:42:28.337Z,41.60
2023-02-27T13:45:18.014Z,41.77
2023-02-27T13:47:50.224Z,42.83
2023-02-27T13:50:18.158Z,43.92
2023-02-27T13:52:47.088Z,43.23
2023-02-27T13:55:35.514Z,43.72
2023-02-27T13:58:05.823Z,42.75
2023-02-27T14:00:37.896Z,42.96
2023-02-27T14:03:18.624Z,43.70
2023-02-27T14:05:49.298Z,44.33
2023-02-27T14:08:55.701Z,44.54
2023-02-27T14:11:39.849Z,44.45
2023-02-27T14:14:29.601Z,43.83
2023-02-27T14:16:58.996Z,44.73
2023-02-27T14:19:29.519Z,45.31
2023-02-27T14:22:38.946Z,45.26
2023-02-27T14:25:22.321Z,44.78
2023-02-27T14:27:56.843Z,45.59
2023-02-27T14:30:41.298Z,45.01
2023-02-27T14:33:40.340Z,45.13
2023-02-27T14:36:19.424Z,44.76
2023-02-27T14:38:49.418Z,45.52
2023-02-27T14:41:39.622Z,45.89
2023-02-27T14:44:22.713Z,45.48
2023-02-27T14:46:54.400Z,45.41
2023-02-27T14:49:29.355Z,45.92
2023-02-27T14:51:57.578Z,45.51
2023-02-27T14:54:27.329Z,45.38
2023-02-27T14:57:07.127Z,46.11
2023-02-27T14:59:44.234Z,46.15
2023-02-27T15:02:24.574Z,46.19
2023-02-27T15:05:25.418Z,45.65
2023-02-27T15:07:54.197Z,45.94
2023-02-27T15:10:33.646Z,45.89
2023-02-27T15:13:02.834Z,46.14
2023-02-27T15:15:32.227Z,46.52
2023-02-27T15:18:01.158Z,46.49
2023-02-27T15:20:34.633Z,46.61
2023-02-27T15:23:28.706Z,46.70
2023-02-27T15:25:59.234Z,46.28
2023-02-27T15:28:32.349Z,46.60
2023-02-27T15:31:00.650Z,46.75
2023-02-27T15:33:31.947Z,46.42
2023-02-27T15:36:01.679Z,46.90
2023-02-27T15:38:31.058Z,47.03
2023-02-27T15:41:00.666Z,47.26
2023-02-27T15:43:30.087Z,47.31
2023-02-27T15:45:58.580Z,47.23
2023-02-27T15:48:27.130Z,47.19
2023-02-27T15:51:01.174Z,47.46
2023-02-27T15:53:30.965Z,47.64
2023-02-27T15:56:04.415Z,47.77
2023-02-27T15:58:36.855Z,48.03
2023-02-27T16:01:19.789Z,48.05
2023-02-27T16:03:50.675Z,47.73
2023-02-27T16:06:23.455Z,48.18
2023-02-27T16:08:52.860Z,48.36
2023-02-27T16:11:25.229Z,48.28
2023-02-27T16:13:54.775Z,48.27
2023-02-27T16:16:36.432Z,48.78
2023-02-27T16:19:27.065Z,48.34
2023-02-27T16:22:19.146Z,48.63
2023-02-27T16:24:47.949Z,48.55
2023-02-27T16:27:28.714Z,48.70
2023-02-27T16:30:03.047Z,48.67
2023-02-27T16:32:39.213Z,48.73
2023-02-27T16:35:16.904Z,48.83
2023-02-27T16:37:46.187Z,48.98
2023-02-27T16:40:23.593Z,48.96
2023-02-27T16:42:52.826Z,49.39
2023-02-27T16:45:23.521Z,49.55
2023-02-27T16:47:54.188Z,49.51
2023-02-27T16:50:30.901Z,49.48
2023-02-27T16:52:58.885Z,49.50
2023-02-27T16:55:30.180Z,49.69
2023-02-27T16:57:59.225Z,49.81
2023-02-27T17:00:27.446Z,49.98
2023-02-27T17:02:55.385Z,50.19
2023-02-27T17:05:24.408Z,50.23
2023-02-27T17:07:52.443Z,50.20
2023-02-27T17:10:24.727Z,50.23
2023-02-27T17:12:53.508Z,50.34
2023-02-27T17:15:22.283Z,50.49
2023-02-27T17:17:50.296Z,50.52
2023-02-27T17:20:18.229Z,50.63
2023-02-27T17:22:46.318Z,50.79
2023-02-27T17:25:15.303Z,50.90
2023-02-27T17:27:44.370Z,50.98
2023-02-27T17:30:14.635Z,51.08
2023-02-27T17:32:42.775Z,51.04
2023-02-27T17:35:11.458Z,51.15
2023-02-27T17:37:39.529Z,51.12
2023-02-27T17:40:08.507Z,51.21
2023-02-27T17:42:37.514Z,51.46
2023-02-27T17:45:08.172Z,51.33
2023-02-27T17:47:36.372Z,51.45
2023-02-27T17:50:05.425Z,51.42
2023-02-27T17:52:36.796Z,51.52
2023-02-27T17:55:06.543Z,51.48
2023-02-27T17:57:39.472Z,51.57
2023-02-27T18:00:09.505Z,51.62
2023-02-27T18:02:37.570Z,51.61
2023-02-27T18:05:06.941Z,51.67
2023-02-27T18:07:35.117Z,51.95
2023-02-27T18:10:05.797Z,51.90
2023-02-27T18:12:34.854Z,51.91
2023-02-27T18:15:04.492Z,51.82
2023-02-27T18:17:33.243Z,51.87
2023-02-27T18:20:01.469Z,51.95
2023-02-27T18:22:30.305Z,51.85
2023-02-27T18:24:58.879Z,51.97
2023-02-27T18:27:28.236Z,52.05
2023-02-27T18:29:57.898Z,51.65
2023-02-27T18:32:26.070Z,51.20
2023-02-27T18:34:54.401Z,51.38
2023-02-27T18:37:22.410Z,51.48
2023-02-27T18:39:50.485Z,51.74
2023-02-27T18:42:18.557Z,51.96
2023-02-27T18:44:47.882Z,52.28
2023-02-27T18:47:15.923Z,52.45
2023-02-27T18:49:44.319Z,52.46
2023-02-27T18:52:12.479Z,52.46
2023-02-27T18:54:42.602Z,52.68
2023-02-27T18:57:11.302Z,52.62
2023-02-27T18:59:41.456Z,52.48
2023-02-27T19:02:15.592Z,52.47
2023-02-27T19:04:43.819Z,52.01
2023-02-27T19:07:12.065Z,51.97
2023-02-27T19:09:40.544Z,51.99
2023-02-27T19:12:11.037Z,51.95
2023-02-27T19:14:40.068Z,51.90
2023-02-27T19:17:09.067Z,51.65
2023-02-27T19:19:38.095Z,51.73
2023-02-27T19:22:06.172Z,52.08
2023-02-27T19:24:34.320Z,52.15
2023-02-27T19:27:02.472Z,52.28
2023-02-27T19:29:30.793Z,52.35
2023-02-27T19:31:58.839Z,51.80
2023-02-27T19:34:26.789Z,52.20
2023-02-27T19:36:55.164Z,52.02
2023-02-27T19:39:23.364Z,52.14
2023-02-27T19:41:51.474Z,52.09
2023-02-27T19:44:19.480Z,51.97
2023-02-27T19:46:51.684Z,52.01
2023-02-27T19:49:20.259Z,51.93
2023-02-27T19:51:48.199Z,52.03
2023-02-27T19:54:17.605Z,51.17
2023-02-27T19:56:45.821Z,51.62
2023-02-27T19:59:13.854Z,51.70
2023-02-27T20:01:42.328Z,52.03
2023-02-27T20:04:11.593Z,52.30
2023-02-27T20:06:43.312Z,52.49
2023-02-27T20:09:14.845Z,52.30
2023-02-27T20:11:44.649Z,52.24
2023-02-27T20:14:15.294Z,52.21
2023-02-27T20:16:44.713Z,52.00
2023-02-27T20:19:16.644Z,51.95
2023-02-27T20:21:45.732Z,52.48
2023-02-27T20:24:14.918Z,52.68
2023-02-27T20:26:46.296Z,52.89
2023-02-27T20:29:21.417Z,52.94
2023-02-27T20:31:51.602Z,52.92
2023-02-27T20:34:26.411Z,52.83
2023-02-27T20:36:56.274Z,53.01
2023-02-27T20:39:25.502Z,53.11
2023-02-27T20:41:53.563Z,52.96
2023-02-27T20:44:21.721Z,52.93
2023-02-27T20:46:49.890Z,52.84
2023-02-27T20:49:18.600Z,52.90
2023-02-27T20:51:46.618Z,52.99
2023-02-27T20:54:20.256Z,53.01
2023-02-27T20:56:54.509Z,53.24
2023-02-27T20:59:25.357Z,53.46
2023-02-27T21:01:54.773Z,52.93
2023-02-27T21:04:47.653Z,52.69
2023-02-27T21:07:21.364Z,52.83
2023-02-27T21:09:51.084Z,53.13
2023-02-27T21:12:19.246Z,53.31
2023-02-27T21:14:49.517Z,53.33
2023-02-27T21:17:17.552Z,53.22
2023-02-27T21:19:45.923Z,52.93
2023-02-27T21:22:14.548Z,52.90
2023-02-27T21:24:42.886Z,52.94
2023-02-27T21:27:10.846Z,53.42
2023-02-27T21:29:39.339Z,53.40
2023-02-27T21:32:07.940Z,53.46
2023-02-27T21:34:36.505Z,53.51
2023-02-27T21:37:06.457Z,53.41
2023-02-27T21:39:34.492Z,53.40
2023-02-27T21:42:02.559Z,53.47
2023-02-27T21:44:32.144Z,53.57
2023-02-27T21:47:10.413Z,53.67
2023-02-27T21:49:39.465Z,53.99
2023-02-27T21:52:07.529Z,54.08
2023-02-27T21:54:36.151Z,53.96
2023-02-27T21:57:04.286Z,54.12
2023-02-27T21:59:32.356Z,54.37
2023-02-27T22:02:00.500Z,54.44
2023-02-27T22:04:28.808Z,54.32
2023-02-27T22:06:57.073Z,54.76
2023-02-27T22:09:25.050Z,54.79
2023-02-27T22:11:53.564Z,54.70
2023-02-27T22:14:21.714Z,54.80
2023-02-27T22:16:49.976Z,54.82
2023-02-27T22:19:22.734Z,54.57
2023-02-27T22:21:52.049Z,54.67
2023-02-27T22:24:20.671Z,54.80
2023-02-27T22:26:50.401Z,54.97
2023-02-27T22:29:19.244Z,55.05
2023-02-27T22:31:47.287Z,55.13
2023-02-27T22:34:20.850Z,55.14
2023-02-27T22:36:52.648Z,55.37
2023-02-27T22:39:21.499Z,55.80
2023-02-27T22:41:50.248Z,55.62
2023-02-27T22:44:18.421Z,55.51
2023-02-27T22:46:48.998Z,55.34
2023-02-27T22:49:23.363Z,55.29
2023-02-27T22:51:52.386Z,55.44
2023-02-27T22:54:22.429Z,55.58
2023-02-27T22:56:52.359Z,55.85
2023-02-27T22:59:21.609Z,55.98
2023-02-27T23:01:50.717Z,56.17
2023-02-27T23:04:18.999Z,56.23
2023-02-27T23:06:47.134Z,56.36
2023-02-27T23:09:20.853Z,56.49
2023-02-27T23:11:48.847Z,56.60
2023-02-27T23:14:17.397Z,56.77
2023-02-27T23:16:46.077Z,56.99
2023-02-27T23:19:17.064Z,57.25
2023-02-27T23:21:45.300Z,57.39
2023-02-27T23:24:18.603Z,57.44
2023-02-27T23:26:49.614Z,57.64
2023-02-27T23:29:18.119Z,57.62
2023-02-27T23:31:46.389Z,57.55
2023-02-27T23:34:14.563Z,57.74
2023-02-27T23:36:42.732Z,57.88
2023-02-27T23:39:10.800Z,57.87
2023-02-27T23:41:38.972Z,58.10
2023-02-27T23:44:06.939Z,58.31
2023-02-27T23:46:34.911Z,58.31
2023-02-27T23:49:03.600Z,58.50
2023-02-27T23:51:33.404Z,58.49
2023-02-27T23:54:01.826Z,58.80
2023-02-27T23:56:31.213Z,59.04
2023-02-27T23:59:02.798Z,59.00
